ESOW

Stockholm Västerås Airport

Stockholm / Västerås, Sweden
TAF ESOW 261130Z 2612/2617 23009KT 9999 SCT040 PROB40 2612/2617 SHRA BKN035CB
Issued Valid From Valid To
Apr-26 @ 11:30 UTC
(2 hours ago)
Apr-26 @ 12:00 UTC
(an hour ago)
Apr-26 @ 17:00 UTC
(in 4 hours)
Apr-26 @ 12:00 to Apr-26 @ 17:00
TAF ESOW 261130Z 2612/2617 23009KT 9999 SCT040
Wind Visibility Clouds
230° at 9 knots 10,000+ meters
  • Scattered at 4,000' AGL
Probable  (Probability 40%) Apr-26 @ 12:00 to Apr-26 @ 17:00
PROB40 2612/2617 SHRA BKN035CB
Clouds Conditions
  • Broken at 3,500' AGL
  • Rain
TAF ESOW 261130Z 2612/2617 23009KT 9999 SCT040 PROB40 2612/2617 SHRA BKN035CB
Issued Apr-26 @ 11:30 UTC
(2 hours ago)
Valid From Apr-26 @ 12:00 UTC
(an hour ago)
Valid To Apr-26 @ 17:00 UTC
(in 4 hours)
Apr-26 @ 12:00 - Apr-26 @ 17:00
Wind Visibility
230° at 9 knots 10,000+ meters
Clouds
  • Scattered at 4,000' AGL
Probability 40% Probable Apr-26 @ 12:00 - Apr-26 @ 17:00
Clouds
  • Broken at 3,500' AGL
Conditions
  • Rain